createdAt,value
2024-01-26T00:02:07.755Z,90.10
2024-01-26T00:04:34.634Z,90.00
2024-01-26T00:07:01.498Z,90.00
2024-01-26T00:09:28.422Z,90.00
2024-01-26T00:11:55.140Z,90.00
2024-01-26T00:14:21.845Z,90.00
2024-01-26T00:16:48.566Z,90.00
2024-01-26T00:19:15.287Z,90.00
2024-01-26T00:21:42.041Z,90.00
2024-01-26T00:24:08.773Z,90.00
2024-01-26T00:26:35.518Z,90.00
2024-01-26T00:29:02.243Z,90.00
2024-01-26T00:31:28.944Z,90.00
2024-01-26T00:33:55.775Z,90.00
2024-01-26T00:36:22.551Z,90.00
2024-01-26T00:38:49.202Z,90.00
2024-01-26T00:41:15.929Z,90.00
2024-01-26T00:43:42.619Z,90.00
2024-01-26T00:46:09.385Z,90.00
2024-01-26T00:48:37.907Z,90.00
2024-01-26T00:51:05.825Z,90.00
2024-01-26T00:53:33.431Z,90.00
2024-01-26T00:56:00.140Z,90.00
2024-01-26T00:58:26.852Z,89.90
2024-01-26T01:00:53.645Z,90.00
2024-01-26T01:03:20.712Z,90.00
2024-01-26T01:05:47.716Z,90.00
2024-01-26T01:08:14.489Z,90.00
2024-01-26T01:10:41.209Z,90.00
2024-01-26T01:13:11.415Z,90.00
2024-01-26T01:15:41.088Z,90.00
2024-01-26T01:18:07.949Z,90.00
2024-01-26T01:20:34.897Z,90.00
2024-01-26T01:23:01.699Z,89.90
2024-01-26T01:25:28.420Z,90.00
2024-01-26T01:27:55.190Z,90.00
2024-01-26T01:30:21.993Z,90.00
2024-01-26T01:32:48.844Z,90.00
2024-01-26T01:35:15.900Z,90.00
2024-01-26T01:37:42.627Z,89.90
2024-01-26T01:40:09.840Z,89.90
2024-01-26T01:42:36.820Z,89.90
2024-01-26T01:45:14.219Z,89.90
2024-01-26T01:47:42.649Z,89.90
2024-01-26T01:50:10.083Z,89.90
2024-01-26T01:52:45.603Z,89.90
2024-01-26T01:55:16.074Z,90.00
2024-01-26T01:57:45.640Z,90.30
2024-01-26T02:00:17.251Z,89.90
2024-01-26T02:02:48.157Z,89.90
2024-01-26T02:05:16.442Z,89.90
2024-01-26T02:07:47.781Z,89.90
2024-01-26T02:10:14.440Z,89.90
2024-01-26T02:12:41.093Z,89.90
2024-01-26T02:15:09.442Z,89.90
2024-01-26T02:17:37.471Z,89.90
2024-01-26T02:20:05.351Z,89.90
2024-01-26T02:22:32.487Z,89.90
2024-01-26T02:24:59.325Z,89.90
2024-01-26T02:27:26.318Z,89.90
2024-01-26T02:29:53.054Z,89.90
2024-01-26T02:32:19.720Z,89.90
2024-01-26T02:34:46.618Z,89.90
2024-01-26T02:37:13.416Z,89.90
2024-01-26T02:39:40.105Z,89.90
2024-01-26T02:42:07.146Z,89.80
2024-01-26T02:44:34.846Z,89.90
2024-01-26T02:47:01.779Z,89.90
2024-01-26T02:49:29.718Z,90.00
2024-01-26T02:51:56.534Z,90.00
2024-01-26T02:54:24.447Z,90.00
2024-01-26T02:56:51.691Z,90.00
2024-01-26T02:59:18.505Z,90.00
2024-01-26T03:01:45.185Z,90.00
2024-01-26T03:04:12.033Z,90.00
2024-01-26T03:06:38.819Z,90.00
2024-01-26T03:09:05.576Z,90.00
2024-01-26T03:11:40.009Z,90.00
2024-01-26T03:14:07.888Z,90.00
2024-01-26T03:16:35.245Z,90.00
2024-01-26T03:19:02.704Z,90.00
2024-01-26T03:21:29.500Z,90.00
2024-01-26T03:23:56.323Z,90.00
2024-01-26T03:26:23.051Z,90.00
2024-01-26T03:28:50.067Z,90.00
2024-01-26T03:31:16.850Z,90.00
2024-01-26T03:33:45.413Z,90.00
2024-01-26T03:36:15.143Z,90.00
2024-01-26T03:38:42.016Z,90.00
2024-01-26T03:41:08.767Z,90.10
2024-01-26T03:43:36.330Z,90.10
2024-01-26T03:46:09.684Z,90.00
2024-01-26T03:48:36.454Z,90.00
2024-01-26T03:51:04.093Z,90.00
2024-01-26T03:53:30.879Z,90.00
2024-01-26T03:55:57.545Z,90.00
2024-01-26T03:58:24.328Z,90.00
2024-01-26T04:00:51.117Z,90.00
2024-01-26T04:03:17.934Z,90.10
2024-01-26T04:05:44.862Z,90.10
2024-01-26T04:08:13.237Z,90.10
2024-01-26T04:10:40.082Z,90.00
2024-01-26T04:13:07.624Z,90.00
2024-01-26T04:15:34.479Z,90.00
2024-01-26T04:18:01.520Z,90.00
2024-01-26T04:20:28.374Z,90.00
2024-01-26T04:22:55.101Z,90.00
2024-01-26T04:25:21.731Z,90.00
2024-01-26T04:27:48.397Z,90.00
2024-01-26T04:30:15.891Z,90.00
2024-01-26T04:32:42.950Z,90.00
2024-01-26T04:35:12.814Z,90.00
2024-01-26T04:37:39.525Z,90.00
2024-01-26T04:40:08.424Z,90.00
2024-01-26T04:42:36.352Z,90.00
2024-01-26T04:45:03.607Z,90.00
2024-01-26T04:47:30.565Z,90.00
2024-01-26T04:49:57.376Z,90.00
2024-01-26T04:52:24.118Z,90.00
2024-01-26T04:54:50.901Z,90.00
2024-01-26T04:57:17.659Z,90.00
2024-01-26T04:59:44.413Z,90.00
2024-01-26T05:02:11.837Z,90.10
2024-01-26T05:04:38.558Z,90.10
2024-01-26T05:07:05.395Z,90.20
2024-01-26T05:09:32.171Z,90.20
2024-01-26T05:11:58.842Z,90.10
2024-01-26T05:14:28.390Z,90.20
2024-01-26T05:16:55.106Z,90.10
2024-01-26T05:19:21.932Z,90.10
2024-01-26T05:21:48.615Z,90.20
2024-01-26T05:24:15.543Z,90.20
2024-01-26T05:26:42.397Z,90.20
2024-01-26T05:29:09.128Z,90.20
2024-01-26T05:31:36.359Z,90.20
2024-01-26T05:34:03.319Z,90.20
2024-01-26T05:36:30.106Z,90.30
2024-01-26T05:38:57.052Z,90.20
2024-01-26T05:41:24.145Z,90.30
2024-01-26T05:43:51.732Z,90.30
2024-01-26T05:46:18.610Z,90.40
2024-01-26T05:48:46.127Z,90.40
2024-01-26T05:51:14.305Z,90.40
2024-01-26T05:53:41.314Z,90.40
2024-01-26T05:56:08.300Z,90.40
2024-01-26T05:58:35.004Z,90.40
2024-01-26T06:01:01.923Z,90.50
2024-01-26T06:03:28.927Z,90.50
2024-01-26T06:05:55.929Z,90.50
2024-01-26T06:08:22.714Z,90.60
2024-01-26T06:10:49.645Z,90.60
2024-01-26T06:13:16.470Z,90.60
2024-01-26T06:15:43.219Z,90.60
2024-01-26T06:18:10.423Z,90.60
2024-01-26T06:20:37.335Z,90.70
2024-01-26T06:23:04.304Z,90.60
2024-01-26T06:25:31.124Z,90.70
2024-01-26T06:27:58.031Z,90.70
2024-01-26T06:30:24.716Z,90.70
2024-01-26T06:32:52.791Z,90.80
2024-01-26T06:35:19.640Z,90.80
2024-01-26T06:37:46.512Z,91.20
2024-01-26T06:40:13.905Z,90.80
2024-01-26T06:42:40.996Z,90.80
2024-01-26T06:45:12.180Z,90.80
2024-01-26T06:47:39.248Z,90.90
2024-01-26T06:50:08.968Z,90.90
2024-01-26T06:52:36.841Z,90.90
2024-01-26T06:55:04.066Z,90.80
2024-01-26T06:57:30.712Z,91.00
2024-01-26T06:59:57.370Z,91.00
2024-01-26T07:02:23.989Z,90.90
2024-01-26T07:04:50.607Z,90.90
2024-01-26T07:07:17.276Z,90.90
2024-01-26T07:09:43.943Z,90.90
2024-01-26T07:12:10.736Z,90.90
2024-01-26T07:14:37.475Z,90.90
2024-01-26T07:17:04.374Z,90.90
2024-01-26T07:19:31.173Z,91.00
2024-01-26T07:21:57.920Z,91.00
2024-01-26T07:24:24.633Z,91.00
2024-01-26T07:26:51.408Z,91.00
2024-01-26T07:29:18.247Z,91.00
2024-01-26T07:31:46.272Z,91.10
2024-01-26T07:34:13.475Z,91.10
2024-01-26T07:36:40.738Z,91.10
2024-01-26T07:39:08.118Z,91.00
2024-01-26T07:41:35.092Z,91.10
2024-01-26T07:44:01.768Z,91.10
2024-01-26T07:46:28.377Z,91.10
2024-01-26T07:48:55.395Z,91.00
2024-01-26T07:51:22.264Z,91.00
2024-01-26T07:53:49.023Z,91.00
2024-01-26T07:56:15.937Z,91.00
2024-01-26T07:58:42.726Z,91.00
2024-01-26T08:01:11.836Z,91.00
2024-01-26T08:03:38.894Z,91.00
2024-01-26T08:06:06.383Z,91.10
2024-01-26T08:08:33.151Z,91.10
2024-01-26T08:11:01.123Z,91.10
2024-01-26T08:13:28.029Z,91.10
2024-01-26T08:15:55.855Z,91.10
2024-01-26T08:18:23.353Z,91.10
2024-01-26T08:20:51.139Z,91.10
2024-01-26T08:23:17.915Z,91.10
2024-01-26T08:25:45.548Z,91.00
2024-01-26T08:28:12.891Z,91.00
2024-01-26T08:30:39.591Z,91.00
2024-01-26T08:33:06.485Z,91.00
2024-01-26T08:35:33.735Z,91.00
2024-01-26T08:38:00.604Z,91.10
2024-01-26T08:40:29.227Z,91.00
2024-01-26T08:42:55.908Z,91.00
2024-01-26T08:45:22.658Z,91.00
2024-01-26T08:47:50.014Z,91.00
2024-01-26T08:50:16.955Z,90.90
2024-01-26T08:52:43.753Z,90.90
2024-01-26T08:55:10.405Z,91.00
2024-01-26T08:57:37.142Z,90.90
2024-01-26T09:00:10.076Z,90.90
2024-01-26T09:02:37.226Z,90.90
2024-01-26T09:05:04.151Z,90.90
2024-01-26T09:07:30.894Z,90.80
2024-01-26T09:09:57.547Z,91.00
2024-01-26T09:12:24.305Z,90.70
2024-01-26T09:20:08.656Z,90.20
2024-01-26T09:22:35.821Z,90.00
2024-01-26T09:25:04.863Z,88.80
2024-01-26T09:27:32.020Z,87.70
2024-01-26T09:29:58.900Z,88.10
2024-01-26T09:32:25.911Z,86.80
2024-01-26T09:34:52.871Z,87.10
2024-01-26T09:37:21.736Z,87.00
2024-01-26T09:39:48.894Z,87.30
2024-01-26T09:42:20.591Z,87.40
2024-01-26T09:47:53.638Z,86.80
2024-01-26T09:50:23.229Z,87.00
2024-01-26T09:52:51.739Z,86.90
2024-01-26T09:55:20.828Z,86.70
2024-01-26T09:57:49.127Z,86.70
2024-01-26T10:00:16.432Z,88.20
2024-01-26T10:02:44.004Z,89.10
2024-01-26T10:05:21.797Z,87.00
2024-01-26T10:10:51.159Z,85.50
2024-01-26T10:13:33.450Z,86.60
2024-01-26T10:16:37.294Z,88.20
2024-01-26T10:19:05.462Z,87.10
2024-01-26T10:21:32.463Z,86.10
2024-01-26T10:23:59.681Z,84.90
2024-01-26T10:26:29.500Z,81.00
2024-01-26T10:28:58.010Z,79.00
2024-01-26T10:31:26.795Z,78.60
2024-01-26T10:33:56.100Z,77.90
2024-01-26T10:36:26.921Z,74.50
2024-01-26T10:38:56.373Z,70.80
2024-01-26T10:41:28.068Z,69.20
2024-01-26T10:44:02.993Z,68.80
2024-01-26T10:46:35.590Z,68.10
2024-01-26T10:49:11.985Z,65.90
2024-01-26T10:51:57.767Z,66.40
2024-01-26T10:54:26.610Z,68.20
2024-01-26T10:56:53.618Z,69.10
2024-01-26T10:59:21.610Z,69.10
2024-01-26T11:01:58.292Z,69.80
2024-01-26T11:04:31.742Z,70.00
2024-01-26T11:06:59.423Z,70.30
2024-01-26T11:13:28.546Z,70.90
2024-01-26T11:16:07.203Z,71.40
2024-01-26T11:22:32.322Z,72.00
2024-01-26T11:24:59.832Z,72.20
2024-01-26T11:27:27.027Z,71.00
2024-01-26T11:29:53.833Z,70.20
2024-01-26T11:32:21.095Z,70.80
2024-01-26T11:35:03.809Z,70.10
2024-01-26T11:37:31.622Z,69.80
2024-01-26T11:39:58.646Z,70.10
2024-01-26T11:42:26.091Z,70.50
2024-01-26T11:45:09.665Z,71.00
2024-01-26T11:47:41.306Z,70.80
2024-01-26T11:50:09.522Z,70.80
2024-01-26T11:52:37.165Z,70.50
2024-01-26T11:55:22.103Z,70.60
2024-01-26T11:57:52.744Z,71.20
2024-01-26T12:00:20.365Z,70.80
2024-01-26T12:02:47.439Z,70.10
2024-01-26T12:05:16.443Z,69.60
2024-01-26T12:07:43.447Z,70.00
2024-01-26T12:10:14.610Z,69.00
2024-01-26T12:12:48.320Z,68.40
2024-01-26T12:15:15.476Z,68.40
2024-01-26T12:17:42.504Z,68.60
2024-01-26T12:20:11.205Z,68.40
2024-01-26T12:22:38.602Z,69.10
2024-01-26T12:25:08.284Z,69.20
2024-01-26T12:27:36.002Z,68.70
2024-01-26T12:30:03.260Z,69.10
2024-01-26T12:32:30.649Z,68.70
2024-01-26T12:34:59.341Z,69.30
2024-01-26T12:37:28.754Z,69.40
2024-01-26T12:39:55.700Z,69.90
2024-01-26T12:42:22.616Z,70.20
2024-01-26T12:44:49.445Z,69.80
2024-01-26T12:47:16.223Z,70.10
2024-01-26T12:49:43.038Z,69.80
2024-01-26T12:52:11.284Z,70.10
2024-01-26T12:54:38.148Z,70.30
2024-01-26T12:57:05.316Z,71.40
2024-01-26T12:59:32.132Z,70.70
2024-01-26T13:01:58.994Z,70.70
2024-01-26T13:04:26.398Z,70.70
2024-01-26T13:06:53.413Z,70.50
2024-01-26T13:09:21.284Z,70.50
2024-01-26T13:11:48.303Z,70.00
2024-01-26T13:14:15.230Z,70.40
2024-01-26T13:16:42.160Z,70.70
2024-01-26T13:19:09.152Z,70.40
2024-01-26T13:21:36.279Z,70.40
2024-01-26T13:24:03.352Z,70.60
2024-01-26T13:26:30.263Z,70.80
2024-01-26T13:28:57.127Z,70.90
2024-01-26T13:31:26.561Z,71.00
2024-01-26T13:33:53.565Z,70.70
2024-01-26T13:36:20.388Z,71.10
2024-01-26T13:38:47.568Z,71.00
2024-01-26T13:41:15.139Z,71.30
2024-01-26T13:43:44.194Z,71.40
2024-01-26T13:46:11.314Z,71.50
2024-01-26T13:48:40.381Z,72.10
2024-01-26T13:51:19.393Z,71.40
2024-01-26T13:53:46.304Z,71.40
2024-01-26T13:56:14.168Z,71.40
2024-01-26T13:58:41.016Z,71.40
2024-01-26T14:01:08.768Z,71.20
2024-01-26T14:03:36.069Z,71.40
2024-01-26T14:06:03.170Z,71.60
2024-01-26T14:08:30.732Z,71.60
2024-01-26T14:10:58.271Z,71.50
2024-01-26T14:13:25.134Z,71.50
2024-01-26T14:15:52.062Z,71.60
2024-01-26T14:18:20.037Z,71.60
2024-01-26T14:20:48.010Z,71.60
2024-01-26T14:23:15.093Z,71.70
2024-01-26T14:25:42.031Z,71.70
2024-01-26T14:28:09.521Z,71.60
2024-01-26T14:30:36.525Z,71.60
2024-01-26T14:33:03.696Z,71.70
2024-01-26T14:35:30.690Z,71.60
2024-01-26T14:37:57.541Z,71.60
2024-01-26T14:40:24.522Z,71.60
2024-01-26T14:42:51.441Z,71.90
2024-01-26T14:45:18.466Z,71.70
2024-01-26T14:47:47.358Z,71.50
2024-01-26T14:50:15.404Z,71.50
2024-01-26T14:52:42.454Z,71.60
2024-01-26T14:55:10.428Z,71.60
2024-01-26T14:57:39.575Z,71.90
2024-01-26T15:00:08.923Z,71.80
2024-01-26T15:02:39.869Z,72.00
2024-01-26T15:05:23.794Z,72.10
2024-01-26T15:07:52.989Z,72.20
2024-01-26T15:10:22.532Z,72.30
2024-01-26T15:12:49.550Z,72.20
2024-01-26T15:15:19.800Z,72.30
2024-01-26T15:17:56.966Z,72.30
2024-01-26T15:20:23.860Z,72.30
2024-01-26T15:22:51.635Z,72.40
2024-01-26T15:25:18.824Z,72.40
2024-01-26T15:27:45.636Z,72.50
2024-01-26T15:30:14.687Z,72.40
2024-01-26T15:32:43.924Z,72.60
2024-01-26T15:35:14.759Z,72.50
2024-01-26T15:37:42.605Z,72.40
2024-01-26T15:40:14.994Z,72.10
2024-01-26T15:42:41.754Z,72.20
2024-01-26T15:45:08.894Z,72.10
2024-01-26T15:47:35.846Z,72.20
2024-01-26T15:50:02.739Z,72.30
2024-01-26T15:52:34.535Z,72.30
2024-01-26T15:55:04.667Z,72.30
2024-01-26T15:57:31.441Z,72.40
2024-01-26T15:59:58.325Z,72.50
2024-01-26T16:02:25.465Z,72.50
2024-01-26T16:04:55.212Z,72.70
2024-01-26T16:07:22.111Z,72.70
2024-01-26T16:09:48.926Z,72.80
2024-01-26T16:12:15.595Z,72.90
2024-01-26T16:14:44.249Z,73.00
2024-01-26T16:17:12.657Z,73.00
2024-01-26T16:19:40.115Z,73.10
2024-01-26T16:22:06.846Z,73.20
2024-01-26T16:24:33.522Z,73.30
2024-01-26T16:27:00.437Z,74.20
2024-01-26T16:29:27.127Z,73.40
2024-01-26T16:31:54.022Z,73.50
2024-01-26T16:34:20.832Z,74.00
2024-01-26T16:36:47.622Z,73.60
2024-01-26T16:39:19.156Z,73.70
2024-01-26T16:41:52.790Z,73.90
2024-01-26T16:44:19.453Z,73.90
2024-01-26T16:46:46.300Z,73.90
2024-01-26T16:49:15.240Z,74.00
2024-01-26T16:51:42.213Z,74.10
2024-01-26T16:54:09.125Z,74.10
2024-01-26T16:56:36.199Z,74.20
2024-01-26T16:59:02.863Z,74.30
2024-01-26T17:01:32.377Z,74.40
2024-01-26T17:04:01.194Z,75.20
2024-01-26T17:06:28.185Z,74.50
2024-01-26T17:08:55.017Z,74.60
2024-01-26T17:11:21.914Z,74.60
2024-01-26T17:13:48.625Z,74.70
2024-01-26T17:16:15.234Z,74.80
2024-01-26T17:18:42.118Z,74.90
2024-01-26T17:21:09.116Z,74.80
2024-01-26T17:23:37.110Z,74.90
2024-01-26T17:26:04.375Z,75.00
2024-01-26T17:28:31.038Z,75.00
2024-01-26T17:30:57.688Z,75.10
2024-01-26T17:33:24.610Z,75.20
2024-01-26T17:35:51.469Z,75.30
2024-01-26T17:38:18.581Z,75.40
2024-01-26T17:40:45.309Z,75.50
2024-01-26T17:43:12.617Z,75.60
2024-01-26T17:45:39.435Z,75.70
2024-01-26T17:48:06.918Z,75.80
2024-01-26T17:50:33.725Z,75.80
2024-01-26T17:53:00.412Z,75.90
2024-01-26T17:55:32.348Z,75.90
2024-01-26T17:57:59.117Z,76.00
2024-01-26T18:00:25.992Z,76.90
2024-01-26T18:02:53.216Z,76.30
2024-01-26T18:05:22.298Z,76.30
2024-01-26T18:07:49.622Z,76.30
2024-01-26T18:10:16.838Z,76.40
2024-01-26T18:12:44.085Z,76.40
2024-01-26T18:15:11.301Z,76.50
2024-01-26T18:17:38.069Z,76.50
2024-01-26T18:20:06.988Z,76.60
2024-01-26T18:22:35.829Z,76.70
2024-01-26T18:25:03.337Z,76.70
2024-01-26T18:27:30.068Z,76.80
2024-01-26T18:29:56.761Z,76.90
2024-01-26T18:32:23.447Z,77.00
2024-01-26T18:34:50.341Z,76.90
2024-01-26T18:37:17.245Z,77.00
2024-01-26T18:39:45.709Z,77.10
2024-01-26T18:42:12.493Z,77.20
2024-01-26T18:44:39.157Z,77.30
2024-01-26T18:47:05.898Z,77.30
2024-01-26T18:49:34.507Z,77.40
2024-01-26T18:52:01.315Z,78.10
2024-01-26T18:54:28.070Z,77.30
2024-01-26T18:56:54.806Z,77.30
2024-01-26T18:59:23.119Z,77.30
2024-01-26T19:01:56.486Z,77.30
2024-01-26T19:04:23.608Z,77.30
2024-01-26T19:06:50.774Z,77.30
2024-01-26T19:09:17.527Z,77.40
2024-01-26T19:11:45.558Z,77.50
2024-01-26T19:14:12.480Z,77.50
2024-01-26T19:16:39.476Z,77.60
2024-01-26T19:19:06.873Z,77.60
2024-01-26T19:21:33.652Z,77.60
2024-01-26T19:24:00.397Z,77.70
2024-01-26T19:26:27.168Z,77.70
2024-01-26T19:28:54.573Z,77.80
2024-01-26T19:31:23.395Z,77.80
2024-01-26T19:33:50.284Z,77.90
2024-01-26T19:36:17.236Z,77.80
2024-01-26T19:38:44.010Z,77.90
2024-01-26T19:41:10.930Z,78.70
2024-01-26T19:43:37.793Z,77.90
2024-01-26T19:46:04.598Z,78.00
2024-01-26T19:48:31.377Z,78.00
2024-01-26T19:50:58.140Z,78.00
2024-01-26T19:53:27.545Z,78.10
2024-01-26T19:55:54.250Z,78.10
2024-01-26T19:58:20.899Z,78.00
2024-01-26T20:00:47.649Z,78.10
2024-01-26T20:03:14.779Z,78.20
2024-01-26T20:05:41.784Z,78.10
2024-01-26T20:08:08.487Z,78.10
2024-01-26T20:10:35.194Z,78.10
2024-01-26T20:13:01.854Z,78.10
2024-01-26T20:15:28.637Z,78.20
2024-01-26T20:17:55.580Z,78.30
2024-01-26T20:20:22.753Z,78.30
2024-01-26T20:22:49.886Z,78.30
2024-01-26T20:25:16.740Z,78.30
2024-01-26T20:27:43.453Z,78.30
2024-01-26T20:30:10.656Z,78.40
2024-01-26T20:32:37.660Z,78.40
2024-01-26T20:35:04.866Z,78.50
2024-01-26T20:37:31.635Z,78.40
2024-01-26T20:39:58.631Z,78.50
2024-01-26T20:42:27.174Z,78.50
2024-01-26T20:44:54.416Z,78.60
2024-01-26T20:47:24.140Z,78.70
2024-01-26T20:49:50.939Z,78.70
2024-01-26T20:52:17.684Z,78.70
2024-01-26T20:54:44.355Z,78.70
2024-01-26T20:57:11.105Z,78.70
2024-01-26T20:59:38.114Z,78.70
2024-01-26T21:02:05.170Z,78.80
2024-01-26T21:04:32.141Z,78.70
2024-01-26T21:06:59.003Z,78.80
2024-01-26T21:09:26.001Z,78.90
2024-01-26T21:11:52.769Z,78.90
2024-01-26T21:14:19.510Z,78.90
2024-01-26T21:16:46.192Z,79.00
2024-01-26T21:19:12.971Z,79.10
2024-01-26T21:21:39.720Z,79.20
2024-01-26T21:24:07.788Z,79.20
2024-01-26T21:26:36.926Z,79.30
2024-01-26T21:29:04.667Z,79.40
2024-01-26T21:31:36.624Z,79.50
2024-01-26T21:34:04.501Z,79.50
2024-01-26T21:36:31.500Z,79.60
2024-01-26T21:38:58.293Z,79.60
2024-01-26T21:41:25.078Z,79.70
2024-01-26T21:43:57.261Z,79.80
2024-01-26T21:46:24.006Z,79.80
2024-01-26T21:48:50.785Z,79.80
2024-01-26T21:51:18.289Z,80.60
2024-01-26T21:53:45.287Z,79.90
2024-01-26T21:56:12.192Z,80.00
2024-01-26T21:58:39.967Z,80.00
2024-01-26T22:01:08.258Z,80.00
2024-01-26T22:03:35.091Z,80.00
2024-01-26T22:06:02.379Z,80.00
2024-01-26T22:08:29.278Z,80.10
2024-01-26T22:10:56.097Z,80.10
2024-01-26T22:13:22.754Z,80.20
2024-01-26T22:15:49.435Z,80.20
2024-01-26T22:18:19.635Z,80.30
2024-01-26T22:20:47.057Z,80.40
2024-01-26T22:23:13.825Z,80.30
2024-01-26T22:25:40.449Z,80.40
2024-01-26T22:28:07.063Z,80.40
2024-01-26T22:30:33.784Z,80.50
2024-01-26T22:33:00.554Z,80.50
2024-01-26T22:35:28.423Z,80.60
2024-01-26T22:37:55.059Z,80.60
2024-01-26T22:40:21.796Z,80.60
2024-01-26T22:42:48.432Z,80.60
2024-01-26T22:45:15.208Z,80.70
2024-01-26T22:47:41.981Z,80.70
2024-01-26T22:50:09.368Z,80.60
2024-01-26T22:52:36.087Z,80.60
2024-01-26T22:55:03.231Z,80.80
2024-01-26T22:57:32.211Z,80.80
2024-01-26T22:59:58.888Z,80.80
2024-01-26T23:02:26.189Z,80.80
2024-01-26T23:04:52.895Z,80.90
2024-01-26T23:07:20.713Z,80.90
2024-01-26T23:09:47.418Z,80.90
2024-01-26T23:12:14.163Z,80.90
2024-01-26T23:14:40.831Z,80.80
2024-01-26T23:17:07.499Z,80.90
2024-01-26T23:19:34.255Z,80.90
2024-01-26T23:22:01.018Z,81.00
2024-01-26T23:24:27.719Z,80.90
2024-01-26T23:26:54.591Z,81.00
2024-01-26T23:29:21.755Z,81.00
2024-01-26T23:31:48.510Z,81.10
2024-01-26T23:34:15.328Z,81.00
2024-01-26T23:36:42.264Z,81.20
2024-01-26T23:39:09.015Z,81.20
2024-01-26T23:41:35.737Z,81.20
2024-01-26T23:44:02.836Z,81.20
2024-01-26T23:46:29.528Z,81.30
2024-01-26T23:48:56.295Z,81.30
2024-01-26T23:51:23.100Z,81.40
2024-01-26T23:53:49.987Z,81.40
2024-01-26T23:56:16.806Z,81.40
2024-01-26T23:58:43.426Z,81.40
